createdAt,value
2019-03-10T00:01:25.086Z,8.48
2019-03-10T00:03:54.195Z,8.48
2019-03-10T00:06:21.767Z,8.46
2019-03-10T00:08:49.285Z,8.48
2019-03-10T00:11:17.340Z,8.50
2019-03-10T00:13:44.932Z,8.50
2019-03-10T00:16:12.499Z,8.51
2019-03-10T00:18:40.301Z,8.44
2019-03-10T00:21:07.755Z,8.44
2019-03-10T00:23:35.342Z,8.45
2019-03-10T00:26:03.292Z,8.45
2019-03-10T00:28:30.907Z,8.40
2019-03-10T00:30:58.416Z,8.38
2019-03-10T00:33:26.266Z,8.37
2019-03-10T00:35:53.713Z,8.37
2019-03-10T00:38:21.216Z,8.37
2019-03-10T00:40:49.021Z,8.35
2019-03-10T00:43:16.610Z,8.34
2019-03-10T00:45:44.165Z,8.33
2019-03-10T00:48:11.662Z,8.33
2019-03-10T00:50:39.466Z,8.33
2019-03-10T00:53:07.066Z,8.27
2019-03-10T00:55:34.679Z,8.25
2019-03-10T00:58:02.709Z,8.24
2019-03-10T01:00:30.244Z,8.24
2019-03-10T01:02:57.770Z,8.26
2019-03-10T01:05:25.359Z,8.26
2019-03-10T01:07:55.124Z,8.28
2019-03-10T01:10:22.628Z,8.27
2019-03-10T01:12:50.414Z,8.27
2019-03-10T01:15:18.385Z,8.27
2019-03-10T01:17:45.854Z,8.28
2019-03-10T01:20:13.467Z,8.27
2019-03-10T01:22:44.180Z,8.26
2019-03-10T01:25:13.159Z,8.27
2019-03-10T01:27:40.675Z,8.27
2019-03-10T01:30:08.263Z,8.29
2019-03-10T01:32:35.736Z,8.30
2019-03-10T01:35:03.789Z,8.28
2019-03-10T01:37:31.411Z,8.28
2019-03-10T01:39:58.972Z,8.29
2019-03-10T01:42:27.206Z,8.27
2019-03-10T01:44:54.801Z,8.28
2019-03-10T01:47:22.354Z,8.30
2019-03-10T01:49:49.926Z,8.30
2019-03-10T01:52:17.815Z,8.31
2019-03-10T01:54:45.288Z,8.32
2019-03-10T01:57:13.470Z,8.32
2019-03-10T01:59:44.296Z,8.32
2019-03-10T02:02:11.807Z,8.32
2019-03-10T02:04:40.562Z,8.32
2019-03-10T02:07:08.483Z,8.33
2019-03-10T02:09:36.326Z,8.34
2019-03-10T02:12:03.904Z,8.35
2019-03-10T02:14:31.403Z,8.35
2019-03-10T02:16:58.991Z,8.34
2019-03-10T02:19:27.004Z,8.32
2019-03-10T02:21:54.530Z,8.30
2019-03-10T02:24:23.965Z,8.32
2019-03-10T02:26:51.784Z,8.32
2019-03-10T02:29:19.409Z,8.30
2019-03-10T02:31:46.929Z,8.30
2019-03-10T02:34:14.779Z,8.30
2019-03-10T02:36:42.388Z,8.30
2019-03-10T02:39:09.904Z,8.31
2019-03-10T02:41:37.838Z,8.30
2019-03-10T02:44:05.283Z,8.30
2019-03-10T02:46:33.970Z,8.31
2019-03-10T02:49:01.822Z,8.29
2019-03-10T02:51:29.398Z,8.29
2019-03-10T02:53:56.844Z,8.32
2019-03-10T02:56:24.364Z,8.33
2019-03-10T02:58:52.243Z,8.31
2019-03-10T03:01:19.751Z,8.31
2019-03-10T03:03:47.356Z,8.28
2019-03-10T03:06:15.234Z,8.22
2019-03-10T03:08:45.025Z,8.14
2019-03-10T03:11:12.617Z,7.94
2019-03-10T03:13:40.129Z,7.94
2019-03-10T03:16:09.442Z,7.74
2019-03-10T03:18:36.909Z,7.67
2019-03-10T03:21:04.480Z,7.67
2019-03-10T03:23:32.538Z,7.55
2019-03-10T03:26:00.052Z,7.55
2019-03-10T03:28:30.164Z,7.46
2019-03-10T03:30:57.726Z,7.41
2019-03-10T03:33:25.705Z,7.38
2019-03-10T03:35:53.296Z,7.33
2019-03-10T03:38:20.916Z,7.29
2019-03-10T03:40:48.421Z,7.25
2019-03-10T03:43:16.255Z,7.25
2019-03-10T03:45:43.809Z,7.20
2019-03-10T03:48:11.663Z,7.17
2019-03-10T03:50:39.229Z,7.16
2019-03-10T03:53:07.136Z,7.14
2019-03-10T03:55:34.644Z,7.13
2019-03-10T03:58:02.140Z,7.12
2019-03-10T04:00:29.582Z,7.09
2019-03-10T04:02:57.617Z,7.07
2019-03-10T04:05:25.215Z,7.06
2019-03-10T04:07:52.725Z,7.03
2019-03-10T04:10:20.213Z,7.00
2019-03-10T04:12:47.835Z,6.97
2019-03-10T04:15:15.769Z,6.96
2019-03-10T04:17:43.279Z,6.95
2019-03-10T04:20:12.736Z,6.93
2019-03-10T04:22:40.556Z,6.93
2019-03-10T04:25:08.444Z,6.90
2019-03-10T04:27:36.245Z,6.89
2019-03-10T04:30:04.084Z,6.83
2019-03-10T04:32:31.626Z,6.79
2019-03-10T04:34:59.628Z,6.76
2019-03-10T04:37:27.239Z,6.76
2019-03-10T04:39:54.780Z,6.72
2019-03-10T04:42:22.321Z,6.67
2019-03-10T04:44:50.322Z,6.66
2019-03-10T04:47:17.920Z,6.65
2019-03-10T04:49:45.443Z,6.62
2019-03-10T04:52:13.046Z,6.62
2019-03-10T04:55:06.072Z,6.61
2019-03-10T04:57:33.636Z,6.61
2019-03-10T05:00:01.128Z,6.57
2019-03-10T05:02:29.092Z,6.55
2019-03-10T05:04:56.657Z,6.54
2019-03-10T05:07:24.130Z,6.54
2019-03-10T05:09:51.686Z,6.53
2019-03-10T05:12:19.209Z,6.53
2019-03-10T05:14:46.728Z,6.54
2019-03-10T05:17:14.171Z,6.54
2019-03-10T05:19:42.148Z,6.55
2019-03-10T05:22:09.678Z,6.54
2019-03-10T05:24:37.243Z,6.53
2019-03-10T05:27:06.765Z,6.53
2019-03-10T05:29:34.331Z,6.54
2019-03-10T05:32:01.813Z,6.54
2019-03-10T05:34:29.398Z,6.55
2019-03-10T05:36:57.259Z,6.54
2019-03-10T05:39:24.778Z,6.52
2019-03-10T05:41:52.307Z,6.52
2019-03-10T05:44:19.817Z,6.52
2019-03-10T05:46:47.276Z,6.52
2019-03-10T05:49:14.799Z,6.52
2019-03-10T05:51:42.394Z,6.54
2019-03-10T05:54:10.326Z,6.54
2019-03-10T05:56:37.924Z,6.56
2019-03-10T05:59:05.468Z,6.55
2019-03-10T06:01:33.017Z,6.55
2019-03-10T06:04:01.186Z,6.53
2019-03-10T06:06:28.779Z,6.53
2019-03-10T06:08:56.329Z,6.52
2019-03-10T06:11:24.393Z,6.53
2019-03-10T06:13:57.975Z,6.50
2019-03-10T06:16:25.504Z,6.50
2019-03-10T06:18:53.051Z,6.46
2019-03-10T06:21:20.879Z,6.42
2019-03-10T06:23:48.374Z,6.36
2019-03-10T06:26:15.856Z,6.31
2019-03-10T06:28:43.356Z,6.26
2019-03-10T06:31:11.113Z,6.22
2019-03-10T06:33:38.619Z,6.21
2019-03-10T06:36:06.199Z,6.21
2019-03-10T06:38:33.768Z,6.19
2019-03-10T06:41:01.661Z,6.16
2019-03-10T06:43:29.625Z,6.09
2019-03-10T06:45:57.163Z,6.05
2019-03-10T06:48:25.159Z,6.01
2019-03-10T06:50:52.934Z,5.95
2019-03-10T06:53:20.799Z,5.93
2019-03-10T06:55:48.638Z,5.92
2019-03-10T06:58:16.087Z,5.92
2019-03-10T07:00:43.563Z,5.93
2019-03-10T07:03:11.623Z,5.93
2019-03-10T07:05:39.066Z,5.96
2019-03-10T07:08:06.566Z,5.97
2019-03-10T07:10:35.415Z,5.98
2019-03-10T07:13:03.003Z,5.97
2019-03-10T07:15:30.590Z,5.97
2019-03-10T07:17:58.359Z,5.99
2019-03-10T07:20:26.209Z,6.01
2019-03-10T07:22:53.768Z,6.02
2019-03-10T07:25:24.370Z,6.01
2019-03-10T07:28:03.950Z,6.02
2019-03-10T07:30:43.654Z,6.02
2019-03-10T07:33:20.576Z,6.06
2019-03-10T07:36:13.321Z,6.04
2019-03-10T07:38:58.332Z,6.04
2019-03-10T07:41:32.883Z,6.02
2019-03-10T07:44:19.320Z,6.04
2019-03-10T07:47:05.683Z,6.04
2019-03-10T07:50:01.207Z,6.08
2019-03-10T07:52:40.807Z,6.08
2019-03-10T07:55:38.046Z,6.11
2019-03-10T07:58:28.341Z,6.10
2019-03-10T08:01:21.008Z,6.07
2019-03-10T08:04:07.314Z,6.08
2019-03-10T08:06:52.176Z,6.09
2019-03-10T08:09:30.520Z,6.09
2019-03-10T08:12:15.515Z,6.12
2019-03-10T08:14:57.747Z,6.16
2019-03-10T08:17:42.724Z,6.17
2019-03-10T08:20:28.302Z,6.17
2019-03-10T08:23:12.525Z,6.18
2019-03-10T08:25:58.083Z,6.18
2019-03-10T08:28:44.853Z,6.24
2019-03-10T08:31:43.788Z,6.24
2019-03-10T08:34:36.388Z,6.30
2019-03-10T08:37:29.077Z,6.30
2019-03-10T08:40:18.565Z,6.30
2019-03-10T08:42:57.683Z,6.37
2019-03-10T08:45:42.474Z,6.41
2019-03-10T08:48:29.359Z,6.46
2019-03-10T08:51:12.235Z,6.51
2019-03-10T08:54:05.870Z,6.54
2019-03-10T08:56:55.172Z,6.58
2019-03-10T08:59:44.996Z,6.63
2019-03-10T09:02:36.900Z,6.67
2019-03-10T09:05:22.269Z,6.67
2019-03-10T09:08:14.492Z,6.70
2019-03-10T09:10:50.508Z,6.75
2019-03-10T09:13:42.599Z,6.81
2019-03-10T09:16:25.852Z,6.84
2019-03-10T09:19:01.390Z,7.07
2019-03-10T09:21:57.230Z,7.19
2019-03-10T09:24:42.870Z,7.29
2019-03-10T09:27:28.655Z,7.29
2019-03-10T09:30:21.348Z,7.44
2019-03-10T09:33:06.892Z,7.47
2019-03-10T09:35:42.142Z,7.47
2019-03-10T09:38:28.490Z,7.53
2019-03-10T09:41:20.687Z,7.57
2019-03-10T09:44:07.072Z,7.57
2019-03-10T09:46:55.868Z,7.58
2019-03-10T09:49:41.913Z,7.68
2019-03-10T09:52:29.733Z,7.69
2019-03-10T09:55:08.502Z,7.76
2019-03-10T09:57:50.063Z,7.94
2019-03-10T10:00:34.786Z,8.17
2019-03-10T10:03:19.841Z,8.41
2019-03-10T10:05:53.751Z,8.58
2019-03-10T10:08:49.520Z,8.67
2019-03-10T10:11:37.281Z,8.72
2019-03-10T10:14:22.167Z,8.94
2019-03-10T10:17:02.236Z,9.28
2019-03-10T10:19:47.579Z,9.28
2019-03-10T10:22:31.907Z,9.50
2019-03-10T10:25:12.153Z,9.67
2019-03-10T10:28:00.902Z,9.79
2019-03-10T10:30:47.618Z,9.98
2019-03-10T10:33:23.928Z,9.98
2019-03-10T10:36:13.659Z,9.99
2019-03-10T10:39:02.924Z,9.99
2019-03-10T10:41:48.513Z,9.98
2019-03-10T10:44:36.005Z,9.96
2019-03-10T10:47:31.596Z,9.96
2019-03-10T10:50:29.972Z,9.98
2019-03-10T10:53:22.769Z,10.05
2019-03-10T10:56:07.799Z,10.10
2019-03-10T10:58:54.640Z,10.10
2019-03-10T11:01:35.999Z,10.10
2019-03-10T11:04:22.995Z,10.17
2019-03-10T11:07:12.221Z,10.24
2019-03-10T11:10:05.733Z,10.38
2019-03-10T11:13:10.353Z,10.38
2019-03-10T11:15:49.860Z,11.93
2019-03-10T11:18:51.070Z,13.34
2019-03-10T11:21:33.741Z,13.74
2019-03-10T11:24:07.261Z,13.74
2019-03-10T11:26:54.529Z,13.05
2019-03-10T11:29:40.936Z,12.84
2019-03-10T11:32:39.684Z,12.84
2019-03-10T11:35:24.810Z,12.48
2019-03-10T11:38:09.654Z,12.36
2019-03-10T11:41:05.078Z,12.42
2019-03-10T11:43:41.443Z,12.43
2019-03-10T11:46:24.849Z,12.43
2019-03-10T11:49:32.191Z,12.16
2019-03-10T11:52:21.296Z,12.16
2019-03-10T11:55:17.017Z,11.68
2019-03-10T11:57:57.194Z,11.68
2019-03-10T12:00:33.320Z,11.48
2019-03-10T12:03:18.414Z,11.42
2019-03-10T12:05:54.674Z,11.69
2019-03-10T12:08:40.291Z,12.25
2019-03-10T12:11:08.133Z,12.19
2019-03-10T12:13:38.823Z,12.15
2019-03-10T12:16:06.648Z,12.17
2019-03-10T12:18:34.631Z,12.20
2019-03-10T12:21:03.497Z,12.20
2019-03-10T12:23:31.024Z,12.21
2019-03-10T12:25:59.048Z,12.34
2019-03-10T12:28:26.652Z,12.34
2019-03-10T12:30:54.206Z,12.26
2019-03-10T12:33:33.646Z,12.26
2019-03-10T12:36:01.188Z,12.21
2019-03-10T12:38:29.104Z,12.17
2019-03-10T12:40:59.416Z,12.17
2019-03-10T12:43:27.007Z,12.15
2019-03-10T12:45:59.921Z,12.20
2019-03-10T12:48:27.463Z,12.20
2019-03-10T12:50:58.184Z,12.20
2019-03-10T12:53:26.050Z,12.14
2019-03-10T12:55:54.882Z,12.14
2019-03-10T12:58:22.446Z,12.03
2019-03-10T13:00:50.250Z,11.88
2019-03-10T13:03:20.269Z,11.80
2019-03-10T13:05:47.746Z,11.83
2019-03-10T13:08:18.742Z,11.83
2019-03-10T13:10:46.322Z,11.60
2019-03-10T13:13:16.053Z,11.60
2019-03-10T13:15:45.025Z,11.55
2019-03-10T13:18:12.531Z,11.57
2019-03-10T13:20:40.991Z,11.50
2019-03-10T13:23:10.218Z,11.26
2019-03-10T13:25:46.502Z,10.97
2019-03-10T13:28:16.249Z,10.43
2019-03-10T13:30:43.526Z,10.43
2019-03-10T13:33:11.031Z,10.31
2019-03-10T13:35:41.834Z,10.15
2019-03-10T13:38:10.629Z,10.04
2019-03-10T13:40:38.609Z,9.93
2019-03-10T13:43:06.573Z,9.82
2019-03-10T13:45:35.427Z,9.78
2019-03-10T13:48:05.904Z,9.98
2019-03-10T13:50:33.648Z,9.98
2019-03-10T13:53:02.309Z,10.01
2019-03-10T13:58:08.436Z,10.03
2019-03-10T14:00:39.997Z,10.05
2019-03-10T14:03:09.403Z,10.02
2019-03-10T14:05:44.177Z,9.99
2019-03-10T14:08:32.309Z,9.96
2019-03-10T14:11:01.887Z,9.97
2019-03-10T14:13:29.860Z,9.97
2019-03-10T14:15:57.413Z,9.95
2019-03-10T14:18:28.140Z,9.90
2019-03-10T14:20:55.656Z,9.88
2019-03-10T14:23:24.435Z,9.88
2019-03-10T14:26:01.341Z,9.93
2019-03-10T14:28:30.774Z,10.04
2019-03-10T14:31:01.556Z,10.24
2019-03-10T14:33:31.383Z,10.50
2019-03-10T14:36:01.720Z,10.50
2019-03-10T14:38:29.706Z,10.74
2019-03-10T14:40:57.215Z,10.74
2019-03-10T14:43:24.774Z,10.71
2019-03-10T14:45:52.811Z,10.67
2019-03-10T14:48:20.381Z,10.67
2019-03-10T14:50:47.836Z,10.62
2019-03-10T14:53:15.796Z,10.38
2019-03-10T14:55:44.936Z,10.23
2019-03-10T14:58:12.622Z,10.09
2019-03-10T15:00:41.017Z,9.94
2019-03-10T15:03:08.680Z,9.82
2019-03-10T15:05:36.146Z,9.82
2019-03-10T15:08:03.994Z,9.63
2019-03-10T15:10:31.596Z,9.63
2019-03-10T15:13:03.334Z,9.50
2019-03-10T15:15:31.331Z,9.40
2019-03-10T15:17:58.781Z,9.24
2019-03-10T15:20:31.940Z,9.24
2019-03-10T15:22:59.882Z,9.16
2019-03-10T15:25:27.499Z,9.03
2019-03-10T15:28:03.848Z,9.03
2019-03-10T15:30:31.854Z,8.97
2019-03-10T15:32:59.402Z,8.91
2019-03-10T15:35:27.043Z,8.91
2019-03-10T15:37:55.015Z,8.85
2019-03-10T15:40:22.621Z,8.70
2019-03-10T15:43:09.853Z,8.46
2019-03-10T15:45:37.639Z,8.47
2019-03-10T15:48:05.271Z,8.50
2019-03-10T15:50:32.833Z,8.55
2019-03-10T15:53:00.716Z,8.55
2019-03-10T15:55:30.000Z,8.58
2019-03-10T15:57:57.493Z,8.57
2019-03-10T16:00:25.472Z,8.57
2019-03-10T16:02:54.206Z,8.57
2019-03-10T16:05:24.751Z,8.52
2019-03-10T16:07:52.704Z,8.49
2019-03-10T16:10:23.325Z,8.47
2019-03-10T16:12:53.736Z,8.44
2019-03-10T16:15:21.768Z,8.42
2019-03-10T16:17:49.240Z,8.42
2019-03-10T16:20:16.833Z,8.39
2019-03-10T16:22:47.277Z,8.32
2019-03-10T16:25:14.873Z,8.32
2019-03-10T16:27:42.398Z,8.29
2019-03-10T16:30:10.226Z,8.20
2019-03-10T16:32:37.817Z,8.20
2019-03-10T16:35:06.587Z,8.16
2019-03-10T16:37:34.627Z,8.10
2019-03-10T16:40:04.917Z,7.88
2019-03-10T16:42:32.452Z,7.73
2019-03-10T16:45:00.519Z,7.73
2019-03-10T16:47:27.983Z,7.62
2019-03-10T16:49:55.885Z,7.19
2019-03-10T16:52:23.481Z,6.95
2019-03-10T16:54:51.401Z,6.95
2019-03-10T16:57:19.200Z,6.74
2019-03-10T16:59:46.910Z,6.32
2019-03-10T17:02:14.496Z,6.19
2019-03-10T17:04:42.426Z,6.07
2019-03-10T17:07:10.991Z,5.97
2019-03-10T17:09:38.590Z,5.97
2019-03-10T17:12:06.611Z,5.91
2019-03-10T17:14:35.779Z,5.88
2019-03-10T17:17:03.344Z,5.86
2019-03-10T17:19:37.819Z,5.83
2019-03-10T17:22:16.463Z,5.81
2019-03-10T17:24:44.365Z,5.76
2019-03-10T17:27:14.721Z,5.76
2019-03-10T17:29:42.251Z,5.74
2019-03-10T17:32:14.799Z,5.74
2019-03-10T17:34:42.340Z,5.70
2019-03-10T17:37:12.568Z,5.62
2019-03-10T17:39:40.554Z,5.57
2019-03-10T17:42:08.105Z,5.49
2019-03-10T17:44:41.273Z,5.43
2019-03-10T17:47:09.888Z,5.38
2019-03-10T17:49:37.343Z,5.38
2019-03-10T17:52:14.389Z,5.31
2019-03-10T17:54:36.572Z,5.31
2019-03-10T17:57:07.161Z,5.23
2019-03-10T17:59:34.646Z,5.21
2019-03-10T18:02:08.999Z,5.17
2019-03-10T18:04:35.167Z,5.15
2019-03-10T18:07:02.732Z,5.15
2019-03-10T18:09:33.614Z,5.13
2019-03-10T18:12:07.278Z,5.13
2019-03-10T18:14:36.151Z,5.07
2019-03-10T18:17:04.154Z,5.05
2019-03-10T18:19:31.621Z,5.02
2019-03-10T18:21:59.870Z,5.00
2019-03-10T18:24:27.803Z,5.00
2019-03-10T18:26:55.322Z,4.99
2019-03-10T18:29:22.931Z,4.98
2019-03-10T18:31:53.788Z,4.98
2019-03-10T18:34:21.339Z,4.97
2019-03-10T18:36:51.208Z,4.96
2019-03-10T18:39:22.009Z,4.96
2019-03-10T18:41:51.954Z,4.93
2019-03-10T18:44:19.520Z,4.91
2019-03-10T18:46:51.548Z,4.89
2019-03-10T18:49:20.314Z,4.85
2019-03-10T18:51:48.541Z,4.82
2019-03-10T18:54:16.468Z,4.80
2019-03-10T18:56:49.055Z,4.80
2019-03-10T18:59:16.648Z,4.79
2019-03-10T19:01:45.925Z,4.74
2019-03-10T19:04:13.499Z,4.71
2019-03-10T19:06:41.120Z,4.68
2019-03-10T19:09:08.988Z,4.68
2019-03-10T19:11:36.467Z,4.67
2019-03-10T19:14:04.811Z,4.67
2019-03-10T19:16:35.416Z,4.66
2019-03-10T19:19:05.768Z,4.69
2019-03-10T19:21:36.371Z,4.71
2019-03-10T19:24:06.027Z,4.73
2019-03-10T19:26:36.246Z,4.73
2019-03-10T19:29:14.098Z,4.75
2019-03-10T19:31:45.632Z,4.75
2019-03-10T19:37:03.051Z,4.68
2019-03-10T19:39:36.256Z,4.61
2019-03-10T19:42:03.737Z,4.61
2019-03-10T19:44:33.128Z,4.45
2019-03-10T19:47:03.674Z,4.38
2019-03-10T19:49:31.278Z,4.38
2019-03-10T19:51:59.759Z,4.30
2019-03-10T19:54:30.577Z,4.24
2019-03-10T19:56:58.090Z,4.17
2019-03-10T19:59:25.630Z,4.14
2019-03-10T20:01:56.456Z,4.11
2019-03-10T20:04:32.475Z,4.06
2019-03-10T20:07:00.227Z,4.02
2019-03-10T20:09:27.788Z,4.02
2019-03-10T20:11:55.336Z,3.97
2019-03-10T20:14:23.488Z,3.97
2019-03-10T20:16:54.520Z,3.91
2019-03-10T20:19:22.111Z,3.91
2019-03-10T20:21:51.910Z,3.91
2019-03-10T20:24:21.096Z,3.93
2019-03-10T20:26:48.679Z,3.99
2019-03-10T20:29:19.047Z,3.99
2019-03-10T20:31:46.539Z,4.05
2019-03-10T20:34:15.265Z,4.05
2019-03-10T20:36:43.223Z,4.10
2019-03-10T20:39:12.911Z,4.13
2019-03-10T20:41:40.550Z,4.21
2019-03-10T20:44:14.227Z,4.19
2019-03-10T20:46:41.847Z,4.19
2019-03-10T20:49:09.396Z,4.20
2019-03-10T20:51:37.362Z,4.21
2019-03-10T20:54:05.244Z,4.21
2019-03-10T20:56:32.795Z,4.21
2019-03-10T20:59:05.231Z,4.20
2019-03-10T21:01:36.642Z,4.20
2019-03-10T21:04:07.197Z,4.09
2019-03-10T21:06:37.922Z,4.04
2019-03-10T21:09:07.870Z,3.97
2019-03-10T21:11:35.459Z,3.91
2019-03-10T21:14:06.260Z,3.91
2019-03-10T21:16:33.813Z,3.79
2019-03-10T21:19:01.403Z,3.79
2019-03-10T21:21:30.957Z,3.73
2019-03-10T21:24:02.951Z,3.67
2019-03-10T21:26:30.583Z,3.59
2019-03-10T21:28:58.505Z,3.48
2019-03-10T21:31:26.018Z,3.46
2019-03-10T21:33:53.469Z,3.46
2019-03-10T21:36:21.499Z,3.43
2019-03-10T21:38:48.992Z,3.42
2019-03-10T21:41:16.544Z,3.42
2019-03-10T21:43:44.514Z,3.41
2019-03-10T21:46:14.073Z,3.40
2019-03-10T21:48:41.702Z,3.40
2019-03-10T21:51:09.455Z,3.45
2019-03-10T21:53:39.743Z,3.52
2019-03-10T21:56:07.307Z,3.52
2019-03-10T21:58:37.923Z,3.45
2019-03-10T22:01:05.529Z,3.39
2019-03-10T22:03:33.077Z,3.39
2019-03-10T22:06:00.993Z,3.29
2019-03-10T22:08:28.613Z,3.24
2019-03-10T22:10:57.361Z,3.24
2019-03-10T22:13:24.959Z,3.23
2019-03-10T22:15:59.319Z,3.25
2019-03-10T22:18:26.850Z,3.26
2019-03-10T22:20:57.644Z,3.28
2019-03-10T22:23:25.460Z,3.28
2019-03-10T22:25:56.049Z,3.27
2019-03-10T22:28:23.529Z,3.25
2019-03-10T22:30:51.072Z,3.25
2019-03-10T22:33:20.330Z,3.21
2019-03-10T22:35:48.141Z,3.21
2019-03-10T22:38:15.647Z,3.25
2019-03-10T22:40:43.690Z,3.29
2019-03-10T22:43:13.250Z,3.33
2019-03-10T22:45:40.806Z,3.33
2019-03-10T22:48:08.661Z,3.39
2019-03-10T22:50:36.102Z,3.45
2019-03-10T22:53:03.677Z,3.55
2019-03-10T22:55:31.549Z,3.60
2019-03-10T22:57:59.055Z,3.61
2019-03-10T23:00:35.116Z,3.62
2019-03-10T23:03:03.004Z,3.62
2019-03-10T23:05:30.582Z,3.62
2019-03-10T23:07:58.024Z,3.61
2019-03-10T23:10:27.159Z,3.64
2019-03-10T23:12:56.538Z,3.64
2019-03-10T23:15:24.332Z,3.65
2019-03-10T23:17:51.974Z,3.67
2019-03-10T23:20:19.446Z,3.68
2019-03-10T23:22:46.962Z,3.70
2019-03-10T23:25:14.459Z,3.73
2019-03-10T23:27:42.522Z,3.73
2019-03-10T23:30:10.067Z,3.79
2019-03-10T23:32:37.600Z,3.83
2019-03-10T23:35:05.112Z,3.88
2019-03-10T23:37:32.918Z,3.93
2019-03-10T23:40:00.472Z,3.96
2019-03-10T23:42:30.965Z,3.96
2019-03-10T23:44:58.454Z,4.05
2019-03-10T23:47:26.432Z,4.05
2019-03-10T23:49:53.877Z,4.11
2019-03-10T23:52:21.341Z,4.13
2019-03-10T23:54:50.849Z,4.14
2019-03-10T23:57:17.996Z,4.16
2019-03-10T23:59:45.983Z,4.16
